Terminal Aerodrome Forecast
Issued by NWS

Home | Current Version | Previous Version | Graphics & Text | Print | Product List | Glossary On
Versions: 1 2 3 4 5 6 7 8 9 10 11 12 13 14 15 16 17 18 19 20 21 22 23 24
000
FTUS43 KABR 240500
TAFMBG
TAF
KMBG 240521Z 2406/2506 VRB03KT P6SM OVC012
      TEMPO 2406/2410 SCT012
     FM241000 18006KT P6SM SCT012 BKN050
     FM242100 21005KT P6SM BKN050=

USA.gov is the U.S. government's official web portal to all federal, state and local government web resources and services.